Time;durP1;ratioP1;P1;durP2;ratioP2;P2;SDS_P1;SDS_P2;PMS_P1;PMS_P2;Temp;Humidity;BMP_temperature;BMP_pressure;BME280_temperature;BME280_humidity;BME280_pressure;Samples;Min_cycle;Max_cycle;Signal;HPM_P1;HPM_P2
2023/05/16 00:00:24;;;;;;;3.40;1.15;;;14.40;99.90;;;;;;4401152;32;20466;-77
2023/05/16 00:02:50;;;;;;;0.73;0.40;;;14.30;99.90;;;;;;4402456;32;20062;-76
2023/05/16 00:05:16;;;;;;;2.05;1.15;;;14.40;99.90;;;;;;4402611;32;20074;-77
2023/05/16 00:07:43;;;;;;;0.70;0.65;;;14.40;99.90;;;;;;4401576;32;20061;-76
2023/05/16 00:10:10;;;;;;;1.50;0.70;;;14.40;99.90;;;;;;4403991;32;20061;-77
2023/05/16 00:12:36;;;;;;;0.32;0.32;;;14.40;99.90;;;;;;4403165;32;20065;-76
2023/05/16 00:15:04;;;;;;;0.47;0.47;;;14.40;99.90;;;;;;4404310;32;20470;-78
2023/05/16 00:17:29;;;;;;;1.70;1.12;;;14.40;99.90;;;;;;4403770;32;20101;-76
2023/05/16 00:19:57;;;;;;;0.60;0.60;;;14.50;99.90;;;;;;4399536;32;20077;-76
2023/05/16 00:22:24;;;;;;;0.55;0.55;;;14.40;99.90;;;;;;4401230;32;20533;-76
2023/05/16 00:24:49;;;;;;;0.45;0.45;;;14.40;99.90;;;;;;4402805;32;20474;-77
2023/05/16 00:27:15;;;;;;;0.40;0.40;;;14.30;99.90;;;;;;4399937;32;20091;-77
2023/05/16 00:29:40;;;;;;;0.40;0.40;;;14.30;99.90;;;;;;4400479;32;20082;-76
2023/05/16 00:32:07;;;;;;;0.70;0.70;;;14.30;99.90;;;;;;4400572;32;20093;-77
2023/05/16 00:34:33;;;;;;;0.60;0.52;;;14.30;99.90;;;;;;4401585;32;20139;-77
2023/05/16 00:36:58;;;;;;;0.40;0.40;;;14.30;99.90;;;;;;4399103;32;20172;-77
2023/05/16 00:39:24;;;;;;;0.68;0.68;;;14.30;99.90;;;;;;4402525;32;20499;-77
2023/05/16 00:41:50;;;;;;;2.28;0.60;;;14.30;99.90;;;;;;4404298;32;20198;-77
2023/05/16 00:44:16;;;;;;;0.50;0.50;;;14.20;99.90;;;;;;4401834;32;20232;-77
2023/05/16 00:46:42;;;;;;;0.40;0.40;;;14.10;99.90;;;;;;4402746;32;20154;-76
2023/05/16 00:49:08;;;;;;;0.60;0.60;;;14.00;99.90;;;;;;4402870;32;20085;-76
2023/05/16 00:51:35;;;;;;;0.95;0.68;;;14.00;99.90;;;;;;4404719;32;20116;-77
2023/05/16 00:54:01;;;;;;;0.52;0.52;;;13.90;99.90;;;;;;4401234;32;20062;-77
2023/05/16 00:56:27;;;;;;;8.13;0.95;;;13.90;99.90;;;;;;4402052;32;20090;-78
2023/05/16 00:58:53;;;;;;;1.73;0.57;;;13.90;99.90;;;;;;4403195;32;20065;-77
2023/05/16 01:01:21;;;;;;;1.55;0.93;;;13.80;99.90;;;;;;4400815;32;20144;-75
2023/05/16 01:03:47;;;;;;;0.73;0.73;;;13.90;99.90;;;;;;4399630;32;20105;-76
2023/05/16 01:06:13;;;;;;;0.47;0.47;;;13.80;99.90;;;;;;4402124;32;20137;-76
2023/05/16 01:08:38;;;;;;;0.60;0.60;;;13.80;99.90;;;;;;4402509;32;20089;-76
2023/05/16 01:11:27;;;;;;;7.32;1.80;;;13.90;99.90;;;;;;4404496;32;20123;-76
2023/05/16 01:14:06;;;;;;;0.70;0.70;;;13.90;99.90;;;;;;4402428;32;20519;-75
2023/05/16 01:16:39;;;;;;;0.80;0.80;;;13.80;99.90;;;;;;4387626;32;20066;-76
2023/05/16 01:19:19;;;;;;;1.55;0.73;;;13.70;99.90;;;;;;4403552;32;20127;-76
2023/05/16 01:21:56;;;;;;;1.70;0.62;;;13.70;99.90;;;;;;4403935;32;20069;-74
2023/05/16 01:24:32;;;;;;;0.70;0.70;;;13.70;99.90;;;;;;4404032;32;20124;-75
2023/05/16 01:26:58;;;;;;;0.50;0.50;;;13.60;99.90;;;;;;4401956;32;20093;-77
2023/05/16 01:29:24;;;;;;;2.35;1.20;;;13.50;99.90;;;;;;4402400;32;20092;-76
2023/05/16 01:31:50;;;;;;;0.57;0.57;;;13.60;99.90;;;;;;4403827;32;20508;-77
2023/05/16 01:34:16;;;;;;;0.65;0.43;;;13.60;99.90;;;;;;4403824;32;21291;-76
2023/05/16 01:36:51;;;;;;;0.20;0.20;;;13.50;99.90;;;;;;4403184;32;20090;-75
2023/05/16 01:39:26;;;;;;;0.40;0.40;;;13.40;99.90;;;;;;4401479;32;20085;-76
2023/05/16 01:42:13;;;;;;;0.70;0.65;;;13.30;99.90;;;;;;4402204;32;20070;-77
2023/05/16 01:44:55;;;;;;;0.40;0.40;;;13.30;99.90;;;;;;4393460;32;20086;-76
2023/05/16 01:47:24;;;;;;;1.65;1.00;;;13.10;99.90;;;;;;4398726;32;20857;-76
2023/05/16 01:50:13;;;;;;;0.40;0.40;;;13.10;99.90;;;;;;4403827;32;20102;-76
2023/05/16 01:52:49;;;;;;;0.37;0.37;;;13.20;99.90;;;;;;4389476;32;20061;-76
2023/05/16 01:55:22;;;;;;;0.45;0.45;;;13.00;99.90;;;;;;4406469;32;20070;-75
2023/05/16 01:57:48;;;;;;;0.75;0.75;;;13.00;99.90;;;;;;4405031;32;20069;-76
2023/05/16 02:00:14;;;;;;;0.70;0.70;;;13.10;99.90;;;;;;4403923;32;20489;-77
2023/05/16 02:02:40;;;;;;;0.52;0.52;;;12.90;99.90;;;;;;4402874;32;20136;-76
2023/05/16 02:05:06;;;;;;;1.35;1.23;;;12.90;99.90;;;;;;4407165;32;20073;-77
2023/05/16 02:07:32;;;;;;;1.27;0.93;;;12.90;99.90;;;;;;4403282;32;20110;-77
2023/05/16 02:09:57;;;;;;;0.50;0.50;;;12.90;99.90;;;;;;4405510;32;20089;-75
2023/05/16 02:12:24;;;;;;;6.18;0.70;;;12.80;99.90;;;;;;4402013;32;20062;-76
2023/05/16 02:14:49;;;;;;;0.70;0.62;;;12.90;99.90;;;;;;4404510;32;20074;-75
2023/05/16 02:17:15;;;;;;;0.95;0.68;;;12.80;99.90;;;;;;4404917;32;20085;-74
2023/05/16 02:19:40;;;;;;;1.60;0.60;;;12.80;99.90;;;;;;4405466;32;20573;-75
2023/05/16 02:22:06;;;;;;;3.42;1.37;;;12.70;99.90;;;;;;4404060;32;20093;-78
2023/05/16 02:24:31;;;;;;;5.47;0.70;;;12.70;99.90;;;;;;4403830;32;20086;-77
2023/05/16 02:26:57;;;;;;;0.77;0.47;;;12.70;99.90;;;;;;4405262;32;20086;-78
2023/05/16 02:29:22;;;;;;;0.20;0.20;;;12.60;99.90;;;;;;4404165;32;20116;-77
2023/05/16 02:31:48;;;;;;;0.60;0.55;;;12.60;99.90;;;;;;4403881;32;20851;-77
2023/05/16 02:34:14;;;;;;;0.30;0.30;;;12.60;99.90;;;;;;4404135;32;20069;-77
2023/05/16 02:36:39;;;;;;;3.05;0.95;;;12.60;99.90;;;;;;4403325;32;20113;-78
2023/05/16 02:39:06;;;;;;;0.50;0.50;;;12.60;99.90;;;;;;4400616;32;20066;-78
2023/05/16 02:41:32;;;;;;;0.60;0.60;;;12.60;99.90;;;;;;4405618;32;20077;-77
2023/05/16 02:44:00;;;;;;;1.85;0.57;;;12.60;99.90;;;;;;4402898;32;20148;-77
2023/05/16 02:46:29;;;;;;;0.50;0.50;;;12.70;99.90;;;;;;4404839;32;20097;-77
2023/05/16 02:48:56;;;;;;;0.40;0.40;;;12.70;99.90;;;;;;4404198;32;20180;-78
2023/05/16 02:51:23;;;;;;;0.80;0.80;;;12.70;99.90;;;;;;4403046;32;20137;-76
2023/05/16 02:53:49;;;;;;;1.17;0.40;;;12.60;99.90;;;;;;4405110;32;20086;-76
2023/05/16 02:56:15;;;;;;;0.75;0.60;;;12.60;99.90;;;;;;4402948;32;20070;-78
2023/05/16 02:58:40;;;;;;;0.60;0.60;;;12.50;99.90;;;;;;4406192;32;20129;-77
2023/05/16 03:01:06;;;;;;;4.12;1.98;;;12.50;99.90;;;;;;4404719;32;20427;-78
2023/05/16 03:03:34;;;;;;;0.62;0.62;;;12.50;99.90;;;;;;4404839;32;20074;-78
2023/05/16 03:05:59;;;;;;;0.47;0.47;;;12.50;99.90;;;;;;4404075;32;20146;-76
2023/05/16 03:08:25;;;;;;;1.80;0.73;;;12.40;99.90;;;;;;4403711;32;20125;-78
2023/05/16 03:10:50;;;;;;;2.42;1.00;;;12.40;99.90;;;;;;4403439;32;20398;-78
2023/05/16 03:13:16;;;;;;;0.43;0.43;;;12.40;99.90;;;;;;4405926;32;20082;-77
2023/05/16 03:15:41;;;;;;;1.42;1.30;;;12.40;99.90;;;;;;4404091;32;20162;-78
2023/05/16 03:18:07;;;;;;;4.65;2.08;;;12.30;99.90;;;;;;4402182;32;20073;-77
2023/05/16 03:20:32;;;;;;;1.25;0.52;;;12.30;99.90;;;;;;4404735;32;20077;-77
2023/05/16 03:22:58;;;;;;;0.35;0.35;;;12.30;99.90;;;;;;4403554;32;20416;-78
2023/05/16 03:25:23;;;;;;;1.67;0.95;;;12.20;99.90;;;;;;4403338;32;20081;-77
2023/05/16 03:27:49;;;;;;;1.87;0.60;;;12.10;99.90;;;;;;4403186;32;20526;-77
2023/05/16 03:30:15;;;;;;;2.62;0.90;;;12.10;99.90;;;;;;4403592;32;20102;-77
2023/05/16 03:32:40;;;;;;;0.45;0.45;;;12.20;99.90;;;;;;4406252;32;20146;-78
2023/05/16 03:35:06;;;;;;;0.75;0.50;;;12.20;99.90;;;;;;4403787;32;20110;-77
2023/05/16 03:37:32;;;;;;;0.50;0.50;;;12.10;99.90;;;;;;4404896;32;20089;-77
2023/05/16 03:39:58;;;;;;;0.70;0.70;;;12.10;99.90;;;;;;4404583;32;20061;-76
2023/05/16 03:42:23;;;;;;;1.02;0.62;;;12.20;99.90;;;;;;4403163;32;20086;-79
2023/05/16 03:44:48;;;;;;;3.58;0.90;;;12.10;99.90;;;;;;4404137;32;20720;-76
2023/05/16 03:47:14;;;;;;;0.93;0.60;;;12.10;99.90;;;;;;4406153;32;20323;-75
2023/05/16 03:49:40;;;;;;;0.40;0.40;;;12.00;99.90;;;;;;4404917;32;20424;-75
2023/05/16 03:52:06;;;;;;;1.77;1.00;;;12.10;99.90;;;;;;4406863;32;20090;-73
2023/05/16 03:54:31;;;;;;;0.35;0.35;;;12.00;99.90;;;;;;4402468;32;20085;-75
2023/05/16 03:56:56;;;;;;;13.05;0.73;;;12.00;99.90;;;;;;4404357;32;20085;-75
2023/05/16 03:59:22;;;;;;;1.12;1.00;;;12.00;99.90;;;;;;4404280;32;20061;-76
2023/05/16 04:01:48;;;;;;;0.95;0.77;;;12.00;99.90;;;;;;4401117;32;20423;-76
2023/05/16 04:04:14;;;;;;;0.70;0.70;;;12.00;99.90;;;;;;4405016;32;20098;-76
2023/05/16 04:06:39;;;;;;;1.65;0.85;;;12.00;99.90;;;;;;4403836;32;20520;-77
2023/05/16 04:09:05;;;;;;;10.93;2.87;;;12.00;99.90;;;;;;4402918;32;20521;-76
2023/05/16 04:11:31;;;;;;;1.90;0.65;;;12.00;99.90;;;;;;4401431;32;20498;-77
2023/05/16 04:13:57;;;;;;;1.00;0.80;;;11.90;99.90;;;;;;4403861;32;20066;-76
2023/05/16 04:16:23;;;;;;;0.62;0.62;;;12.00;99.90;;;;;;4402224;32;20161;-76
2023/05/16 04:18:48;;;;;;;1.15;0.68;;;12.00;99.90;;;;;;4400481;32;20097;-76
2023/05/16 04:21:14;;;;;;;1.00;0.98;;;12.00;99.90;;;;;;4398384;32;20077;-75
2023/05/16 04:23:42;;;;;;;1.23;0.68;;;11.90;99.90;;;;;;4399781;32;20558;-77
2023/05/16 04:26:08;;;;;;;0.40;0.40;;;11.90;99.90;;;;;;4399340;32;20074;-77
2023/05/16 04:28:34;;;;;;;0.47;0.45;;;12.00;99.90;;;;;;4402825;32;21246;-76
2023/05/16 04:31:00;;;;;;;0.65;0.65;;;11.90;99.90;;;;;;4404054;32;20095;-76
2023/05/16 04:33:26;;;;;;;0.82;0.62;;;11.90;99.90;;;;;;4402904;32;20086;-76
2023/05/16 04:35:53;;;;;;;0.95;0.85;;;11.80;99.90;;;;;;4401530;32;20093;-76
2023/05/16 04:38:19;;;;;;;1.15;0.77;;;11.80;99.90;;;;;;4401167;32;20077;-75
2023/05/16 04:40:44;;;;;;;0.65;0.65;;;11.80;99.90;;;;;;4403190;32;20577;-76
2023/05/16 04:43:10;;;;;;;0.57;0.57;;;11.70;99.90;;;;;;4400383;32;20160;-78
2023/05/16 04:45:35;;;;;;;0.37;0.37;;;11.60;99.90;;;;;;4402256;32;20093;-75
2023/05/16 04:48:01;;;;;;;3.25;0.90;;;11.60;99.90;;;;;;4401978;32;20089;-77
2023/05/16 04:50:26;;;;;;;0.50;0.50;;;11.60;99.90;;;;;;4401440;32;20081;-77
2023/05/16 04:52:52;;;;;;;0.50;0.50;;;11.70;99.90;;;;;;4401200;32;20137;-77
2023/05/16 04:55:17;;;;;;;1.77;0.55;;;11.60;99.90;;;;;;4400737;32;20130;-77
2023/05/16 04:57:43;;;;;;;2.50;1.25;;;11.60;99.90;;;;;;4399198;32;20057;-78
2023/05/16 05:00:10;;;;;;;0.50;0.50;;;11.60;99.90;;;;;;4400015;32;20066;-77
2023/05/16 05:02:37;;;;;;;1.27;0.45;;;11.50;99.90;;;;;;4396134;32;21053;-77
2023/05/16 05:05:03;;;;;;;0.40;0.40;;;11.40;99.90;;;;;;4395010;32;20140;-77
2023/05/16 05:07:29;;;;;;;1.85;0.93;;;11.50;99.90;;;;;;4397831;32;20137;-77
2023/05/16 05:09:55;;;;;;;1.50;0.85;;;11.60;99.90;;;;;;4392130;32;20085;-77
2023/05/16 05:12:21;;;;;;;0.50;0.50;;;11.60;99.90;;;;;;4397100;32;20074;-77
2023/05/16 05:14:47;;;;;;;0.50;0.50;;;11.60;99.90;;;;;;4397348;32;20529;-77
2023/05/16 05:17:12;;;;;;;3.15;0.77;;;11.60;99.90;;;;;;4388616;32;20152;-76
2023/05/16 05:19:38;;;;;;;2.20;1.17;;;11.60;99.90;;;;;;4397994;32;20834;-78
2023/05/16 05:22:04;;;;;;;1.48;0.85;;;11.60;99.90;;;;;;4401632;32;20094;-77
2023/05/16 05:24:30;;;;;;;0.47;0.47;;;11.60;99.90;;;;;;4402440;32;20078;-77
2023/05/16 05:26:56;;;;;;;2.95;0.62;;;11.50;99.90;;;;;;4389931;32;20232;-76
2023/05/16 05:29:22;;;;;;;1.20;0.55;;;11.50;99.90;;;;;;4387420;32;20099;-77
2023/05/16 05:31:47;;;;;;;0.52;0.52;;;11.70;99.90;;;;;;4378420;32;20837;-77
2023/05/16 05:34:13;;;;;;;1.95;1.00;;;11.70;99.90;;;;;;4395368;32;20097;-78
2023/05/16 05:36:40;;;;;;;0.50;0.50;;;11.80;99.90;;;;;;4397102;32;20528;-76
2023/05/16 05:39:08;;;;;;;0.52;0.52;;;11.80;99.90;;;;;;4391460;32;20121;-77
2023/05/16 05:41:35;;;;;;;1.27;0.95;;;11.80;99.90;;;;;;4396978;32;20090;-77
2023/05/16 05:44:01;;;;;;;0.65;0.65;;;11.80;99.90;;;;;;4394095;32;20097;-79
2023/05/16 05:46:28;;;;;;;0.50;0.50;;;11.90;99.90;;;;;;4388196;32;20094;-76
2023/05/16 05:48:54;;;;;;;1.15;0.85;;;11.80;99.90;;;;;;4390899;32;20081;-76
2023/05/16 05:51:20;;;;;;;0.50;0.50;;;11.80;99.90;;;;;;4389026;32;20110;-74
2023/05/16 05:53:45;;;;;;;3.37;0.80;;;11.80;99.90;;;;;;4386410;32;20195;-76
2023/05/16 05:56:11;;;;;;;23.67;2.10;;;11.90;99.90;;;;;;4388195;32;20576;-78
2023/05/16 05:58:40;;;;;;;3.45;0.82;;;11.90;99.90;;;;;;4381580;32;20078;-76
2023/05/16 06:01:06;;;;;;;0.65;0.50;;;11.90;99.90;;;;;;4376471;32;20714;-76
2023/05/16 06:03:31;;;;;;;0.93;0.57;;;11.80;99.90;;;;;;4374582;32;20105;-74
2023/05/16 06:05:57;;;;;;;1.67;0.90;;;11.80;99.90;;;;;;4372287;32;20547;-75
2023/05/16 06:08:22;;;;;;;0.60;0.60;;;11.90;99.90;;;;;;4370783;32;20217;-74
2023/05/16 06:10:48;;;;;;;0.98;0.88;;;12.00;99.90;;;;;;4380802;32;20693;-76
2023/05/16 06:13:13;;;;;;;35.17;1.05;;;12.00;99.90;;;;;;4367809;32;20097;-76
2023/05/16 06:15:39;;;;;;;1.40;0.93;;;12.10;99.90;;;;;;4375654;32;20078;-74
2023/05/16 06:18:04;;;;;;;1.17;0.90;;;12.10;99.90;;;;;;4373578;32;20665;-74
2023/05/16 06:20:30;;;;;;;0.40;0.40;;;12.10;99.90;;;;;;4367932;32;20794;-74
2023/05/16 06:22:55;;;;;;;3.72;1.25;;;12.10;99.90;;;;;;4369248;32;20089;-75
2023/05/16 06:25:21;;;;;;;0.60;0.60;;;12.20;99.90;;;;;;4372061;32;20089;-75
2023/05/16 06:27:46;;;;;;;1.23;0.95;;;12.20;99.90;;;;;;4369200;32;20090;-74
2023/05/16 06:30:12;;;;;;;0.50;0.50;;;12.20;99.90;;;;;;4359873;32;20994;-75
2023/05/16 06:32:40;;;;;;;0.40;0.40;;;12.30;99.90;;;;;;4369091;32;20114;-75
2023/05/16 06:35:06;;;;;;;0.40;0.40;;;12.20;99.90;;;;;;4369533;32;20613;-75
2023/05/16 06:37:31;;;;;;;0.35;0.35;;;12.10;99.90;;;;;;4375088;32;20166;-75
2023/05/16 06:39:58;;;;;;;0.55;0.55;;;12.10;99.90;;;;;;4375194;32;20093;-75
2023/05/16 06:42:23;;;;;;;0.52;0.52;;;12.20;99.90;;;;;;4372367;32;21389;-75
2023/05/16 06:44:49;;;;;;;0.85;0.52;;;12.20;99.90;;;;;;4375670;32;20854;-75
2023/05/16 06:47:15;;;;;;;0.40;0.40;;;12.20;99.90;;;;;;4374335;32;20069;-76
2023/05/16 06:49:41;;;;;;;0.40;0.40;;;12.10;99.90;;;;;;4376878;32;20458;-76
2023/05/16 06:52:06;;;;;;;0.57;0.55;;;11.90;99.90;;;;;;4370233;32;20097;-75
2023/05/16 06:54:32;;;;;;;0.40;0.40;;;12.10;99.90;;;;;;4373292;32;20080;-77
2023/05/16 06:56:57;;;;;;;0.60;0.60;;;12.10;99.90;;;;;;4372111;32;21385;-74
2023/05/16 06:59:23;;;;;;;0.55;0.55;;;12.20;99.90;;;;;;4374422;32;21082;-76
2023/05/16 07:01:48;;;;;;;2.83;1.17;;;12.20;99.90;;;;;;4374497;32;20110;-75
2023/05/16 07:04:14;;;;;;;1.50;0.55;;;12.20;99.90;;;;;;4365641;32;20113;-75
2023/05/16 07:06:40;;;;;;;0.57;0.57;;;12.10;99.90;;;;;;4369165;32;20139;-74
2023/05/16 07:09:06;;;;;;;0.50;0.50;;;12.10;99.90;;;;;;4363150;32;20077;-74
2023/05/16 07:11:31;;;;;;;0.43;0.43;;;12.00;99.90;;;;;;4374766;32;20100;-73
2023/05/16 07:13:57;;;;;;;0.43;0.40;;;12.00;99.90;;;;;;4381772;32;20538;-74
2023/05/16 07:16:23;;;;;;;0.40;0.40;;;12.00;99.90;;;;;;4377590;32;20103;-74
2023/05/16 07:18:48;;;;;;;0.37;0.37;;;11.90;99.90;;;;;;4399200;27;20712;-64
2023/05/16 07:21:14;;;;;;;0.50;0.50;;;11.80;99.90;;;;;;4371486;32;20073;-67
2023/05/16 07:23:40;;;;;;;0.37;0.37;;;11.80;99.90;;;;;;4359028;32;20114;-67
2023/05/16 07:26:05;;;;;;;1.08;0.50;;;11.90;99.90;;;;;;4361525;32;20149;-68
2023/05/16 07:28:31;;;;;;;2.15;0.80;;;12.00;99.90;;;;;;4367832;32;20109;-65
2023/05/16 07:30:57;;;;;;;0.75;0.75;;;12.10;99.90;;;;;;4367781;32;20085;-65
2023/05/16 07:33:24;;;;;;;0.52;0.40;;;12.00;99.90;;;;;;4385100;32;20416;-68
2023/05/16 07:35:50;;;;;;;0.52;0.40;;;12.00;99.90;;;;;;4381579;32;20201;-67
2023/05/16 07:38:15;;;;;;;0.45;0.32;;;12.10;99.90;;;;;;4377092;32;20101;-67
2023/05/16 07:40:42;;;;;;;0.85;0.47;;;12.30;99.90;;;;;;4387071;32;20065;-67
2023/05/16 07:43:08;;;;;;;2.62;0.52;;;12.40;99.90;;;;;;4399214;32;20112;-69
2023/05/16 07:45:33;;;;;;;0.30;0.30;;;12.50;99.90;;;;;;4383239;32;20374;-68
2023/05/16 07:47:59;;;;;;;0.50;0.50;;;12.50;99.90;;;;;;4370189;32;21630;-67
2023/05/16 07:50:25;;;;;;;0.55;0.55;;;12.60;99.90;;;;;;4365451;32;20141;-67
2023/05/16 07:52:51;;;;;;;5.18;1.20;;;12.60;99.90;;;;;;4366337;32;20089;-66
2023/05/16 07:55:16;;;;;;;1.00;0.95;;;12.60;99.90;;;;;;4363233;32;20798;-67
2023/05/16 07:57:42;;;;;;;0.28;0.28;;;12.50;99.90;;;;;;4370265;32;20436;-66
2023/05/16 08:00:08;;;;;;;0.47;0.40;;;12.50;99.90;;;;;;4369040;32;20657;-67
2023/05/16 08:02:34;;;;;;;0.32;0.32;;;12.40;99.90;;;;;;4373170;32;20102;-68
2023/05/16 08:05:00;;;;;;;0.30;0.30;;;12.40;99.90;;;;;;4371543;32;21041;-69
2023/05/16 08:07:26;;;;;;;0.90;0.40;;;12.50;99.90;;;;;;4373509;32;21306;-67
2023/05/16 08:09:51;;;;;;;0.43;0.43;;;12.40;99.90;;;;;;4372191;32;20110;-66
2023/05/16 08:12:17;;;;;;;0.40;0.40;;;12.30;99.90;;;;;;4373640;32;20150;-65
2023/05/16 08:14:42;;;;;;;0.50;0.50;;;12.30;99.90;;;;;;4373868;32;20572;-65
2023/05/16 08:17:09;;;;;;;0.30;0.30;;;12.20;99.90;;;;;;4367518;32;20542;-67
2023/05/16 08:19:35;;;;;;;0.45;0.45;;;12.40;99.90;;;;;;4375059;32;20105;-66
2023/05/16 08:22:01;;;;;;;1.02;0.90;;;12.40;99.90;;;;;;4376797;32;20070;-64
2023/05/16 08:24:27;;;;;;;0.50;0.50;;;12.30;99.90;;;;;;4365079;32;20137;-66
2023/05/16 08:26:52;;;;;;;0.30;0.30;;;12.30;99.90;;;;;;4372012;32;20156;-66
2023/05/16 08:29:18;;;;;;;0.20;0.20;;;12.30;99.90;;;;;;4373957;32;20102;-66
2023/05/16 08:31:43;;;;;;;0.30;0.30;;;12.40;99.90;;;;;;4368305;32;20505;-63
2023/05/16 08:34:09;;;;;;;0.30;0.30;;;12.50;99.90;;;;;;4371179;32;20641;-62
2023/05/16 08:36:35;;;;;;;0.45;0.45;;;12.50;99.90;;;;;;4364712;32;20484;-65
2023/05/16 08:39:01;;;;;;;0.35;0.35;;;12.40;99.90;;;;;;4370129;32;20098;-65
2023/05/16 08:41:26;;;;;;;0.45;0.37;;;12.40;99.90;;;;;;4368063;32;20122;-65
2023/05/16 08:43:52;;;;;;;0.30;0.30;;;12.30;99.90;;;;;;4372333;32;21028;-63
2023/05/16 08:46:21;;;;;;;1.85;0.90;;;12.20;99.90;;;;;;4370043;32;20133;-65
2023/05/16 08:48:51;;;;;;;0.50;0.50;;;12.30;99.90;;;;;;4366212;32;20082;-63
2023/05/16 08:51:18;;;;;;;0.30;0.30;;;12.50;99.90;;;;;;4364819;32;20093;-65
2023/05/16 08:53:49;;;;;;;0.98;0.75;;;12.50;99.90;;;;;;4348966;32;20470;-66
2023/05/16 08:56:16;;;;;;;0.40;0.40;;;12.50;99.90;;;;;;4363930;32;20900;-64
2023/05/16 08:58:42;;;;;;;0.47;0.22;;;12.50;99.90;;;;;;4369688;32;20459;-62
2023/05/16 09:01:08;;;;;;;0.25;0.25;;;12.70;99.90;;;;;;4372620;32;20101;-65
2023/05/16 09:03:37;;;;;;;0.20;0.20;;;12.70;99.90;;;;;;4370738;32;20116;-65
2023/05/16 09:06:04;;;;;;;0.47;0.47;;;12.60;99.90;;;;;;4370438;32;20094;-66
2023/05/16 09:08:30;;;;;;;0.30;0.30;;;12.50;99.90;;;;;;4373371;32;20433;-65
2023/05/16 09:10:56;;;;;;;0.65;0.65;;;12.40;99.90;;;;;;4378592;32;21093;-67
2023/05/16 09:13:23;;;;;;;0.40;0.40;;;12.50;99.90;;;;;;4381818;32;20089;-67
2023/05/16 09:16:07;;;;;;;6.10;0.70;;;12.60;99.90;;;;;;4381113;32;20089;-65
2023/05/16 09:18:34;;;;;;;0.20;0.20;;;12.50;99.90;;;;;;4359281;32;20101;-66
2023/05/16 09:20:59;;;;;;;0.40;0.40;;;12.60;99.90;;;;;;4363104;32;20707;-67
2023/05/16 09:23:25;;;;;;;2.08;1.25;;;12.60;99.90;;;;;;4369084;32;20126;-66
2023/05/16 09:25:52;;;;;;;6.65;1.60;;;12.60;99.90;;;;;;4366168;32;20550;-67
2023/05/16 09:28:18;;;;;;;0.20;0.20;;;12.70;99.90;;;;;;4355797;32;20153;-66
2023/05/16 09:30:45;;;;;;;1.27;1.17;;;12.80;99.90;;;;;;4357316;32;20118;-64
2023/05/16 09:33:11;;;;;;;0.50;0.50;;;12.80;99.90;;;;;;4361132;32;20553;-66
2023/05/16 09:35:36;;;;;;;0.40;0.40;;;12.70;99.90;;;;;;4372142;32;20094;-63
2023/05/16 09:38:02;;;;;;;0.30;0.30;;;12.70;99.90;;;;;;4366851;32;20132;-64
2023/05/16 09:40:27;;;;;;;0.30;0.30;;;12.60;99.90;;;;;;4375883;32;20077;-65
2023/05/16 09:43:03;;;;;;;0.20;0.20;;;12.50;99.90;;;;;;4372630;32;20107;-66
2023/05/16 09:45:30;;;;;;;0.40;0.40;;;12.50;99.90;;;;;;4373205;32;20420;-67
2023/05/16 09:48:05;;;;;;;0.98;0.85;;;12.60;99.90;;;;;;4374267;32;21869;-66
2023/05/16 09:50:33;;;;;;;0.55;0.55;;;12.60;99.90;;;;;;4373569;32;20129;-67
2023/05/16 09:52:58;;;;;;;0.20;0.20;;;12.40;99.90;;;;;;4374880;32;20102;-63
2023/05/16 09:55:24;;;;;;;0.40;0.40;;;12.40;99.90;;;;;;4366768;32;20125;-65
2023/05/16 09:57:50;;;;;;;0.40;0.40;;;12.50;99.90;;;;;;4369364;32;20208;-63
2023/05/16 10:00:16;;;;;;;0.40;0.40;;;12.60;99.90;;;;;;4359416;32;20250;-65
2023/05/16 10:02:42;;;;;;;0.30;0.30;;;12.60;99.90;;;;;;4375196;32;20171;-65
2023/05/16 10:05:08;;;;;;;0.77;0.77;;;12.70;99.90;;;;;;4369826;32;20218;-65
2023/05/16 10:07:34;;;;;;;0.30;0.30;;;12.80;99.90;;;;;;4360549;32;20190;-69
2023/05/16 10:10:05;;;;;;;0.35;0.35;;;12.70;99.90;;;;;;4357369;32;20968;-66
2023/05/16 10:12:31;;;;;;;;;;;12.90;99.90;;;;;;4367597;32;20144;-66
2023/05/16 10:15:00;;;;;;;13.73;1.05;;;12.90;99.90;;;;;;4366026;32;20314;-66
2023/05/16 10:17:26;;;;;;;0.50;0.50;;;12.90;99.90;;;;;;4371386;32;20102;-64
2023/05/16 10:19:53;;;;;;;1.35;0.60;;;12.90;99.90;;;;;;4381657;32;20094;-66
2023/05/16 10:22:20;;;;;;;1.27;0.73;;;12.90;99.90;;;;;;4379071;32;20078;-65
2023/05/16 10:25:03;;;;;;;0.60;0.55;;;12.80;99.90;;;;;;4376675;32;20723;-67
2023/05/16 10:27:29;;;;;;;0.40;0.40;;;12.90;99.90;;;;;;4380428;32;20101;-65
2023/05/16 10:29:57;;;;;;;0.95;0.73;;;12.90;99.90;;;;;;4383299;32;20383;-63
2023/05/16 10:32:24;;;;;;;0.40;0.40;;;12.90;99.90;;;;;;4375485;32;20417;-63
2023/05/16 10:34:49;;;;;;;0.20;0.20;;;13.00;99.90;;;;;;4366666;32;20867;-65
2023/05/16 10:37:15;;;;;;;2.42;0.75;;;13.10;99.90;;;;;;4375184;32;21153;-67
2023/05/16 10:39:41;;;;;;;0.37;0.37;;;13.10;99.90;;;;;;4382489;32;20126;-65
2023/05/16 10:42:07;;;;;;;1.08;0.98;;;13.30;99.90;;;;;;4388826;32;20487;-67
2023/05/16 10:44:33;;;;;;;0.77;0.77;;;13.40;99.90;;;;;;4380545;32;20794;-68
2023/05/16 10:46:59;;;;;;;0.30;0.30;;;13.40;99.90;;;;;;4370732;32;20109;-66
2023/05/16 10:49:26;;;;;;;5.12;1.83;;;13.30;99.90;;;;;;4377163;32;20191;-66
2023/05/16 10:52:09;;;;;;;0.20;0.20;;;13.30;99.90;;;;;;4370158;32;20152;-66
2023/05/16 10:54:38;;;;;;;0.52;0.52;;;13.20;99.90;;;;;;4365095;32;20161;-66
2023/05/16 10:57:06;;;;;;;0.40;0.40;;;13.30;99.90;;;;;;4371304;32;20105;-66
2023/05/16 10:59:41;;;;;;;0.40;0.40;;;13.20;99.90;;;;;;4371292;32;20461;-66
2023/05/16 11:02:23;;;;;;;0.30;0.30;;;13.20;99.90;;;;;;4379498;32;20172;-66
2023/05/16 11:04:50;;;;;;;0.47;0.47;;;13.10;99.90;;;;;;4381604;32;20097;-67
2023/05/16 11:07:18;;;;;;;0.62;0.62;;;13.20;99.90;;;;;;4379114;32;20098;-67
2023/05/16 11:09:44;;;;;;;0.70;0.70;;;13.30;99.90;;;;;;4373404;32;20301;-66
2023/05/16 11:12:09;;;;;;;0.62;0.62;;;13.40;99.90;;;;;;4376697;32;20112;-65
2023/05/16 11:14:42;;;;;;;0.85;0.82;;;13.40;99.90;;;;;;4373683;32;20090;-66
2023/05/16 11:17:10;;;;;;;0.88;0.47;;;13.50;99.90;;;;;;4369324;32;21428;-68
2023/05/16 11:19:46;;;;;;;0.40;0.40;;;13.60;99.90;;;;;;4383378;32;20078;-66
2023/05/16 11:22:22;;;;;;;0.43;0.43;;;13.60;99.90;;;;;;4377439;32;20080;-67
2023/05/16 11:24:53;;;;;;;0.40;0.40;;;13.50;99.90;;;;;;4376659;32;20774;-66
2023/05/16 11:27:28;;;;;;;0.30;0.30;;;13.50;99.90;;;;;;4359468;32;20589;-66
2023/05/16 11:29:57;;;;;;;2.72;1.00;;;13.50;99.90;;;;;;4368747;32;20546;-67
2023/05/16 11:32:23;;;;;;;2.85;0.68;;;13.50;99.90;;;;;;4371666;32;20368;-67
2023/05/16 11:34:50;;;;;;;0.82;0.77;;;13.50;99.90;;;;;;4370901;32;21206;-66
2023/05/16 11:37:17;;;;;;;0.50;0.50;;;13.50;99.90;;;;;;4365077;32;20085;-66
2023/05/16 11:39:43;;;;;;;1.17;1.08;;;13.40;99.90;;;;;;4370071;32;20646;-65
2023/05/16 11:42:09;;;;;;;0.20;0.20;;;13.40;99.90;;;;;;4365461;32;20109;-65
2023/05/16 11:44:35;;;;;;;0.70;0.70;;;13.20;99.90;;;;;;4354222;32;94118;-67
2023/05/16 11:47:01;;;;;;;0.40;0.40;;;13.30;99.90;;;;;;4369599;32;20568;-67
2023/05/16 11:49:27;;;;;;;0.40;0.40;;;13.40;99.90;;;;;;4368248;32;20081;-66
2023/05/16 11:51:55;;;;;;;0.73;0.73;;;13.50;99.90;;;;;;4379221;32;20223;-66
2023/05/16 11:54:20;;;;;;;0.52;0.52;;;13.70;99.90;;;;;;4360382;32;20118;-66
2023/05/16 11:56:46;;;;;;;0.37;0.37;;;14.00;99.90;;;;;;4379578;32;20786;-65
2023/05/16 11:59:12;;;;;;;0.30;0.30;;;15.00;99.90;;;;;;4383241;32;20062;-66
2023/05/16 12:01:38;;;;;;;2.95;1.67;;;16.10;99.90;;;;;;4389837;32;20260;-67
2023/05/16 12:04:13;;;;;;;0.45;0.45;;;16.80;99.90;;;;;;4388650;32;20566;-67
2023/05/16 12:06:39;;;;;;;0.30;0.30;;;16.80;99.90;;;;;;4374604;32;20141;-65
2023/05/16 12:09:09;;;;;;;1.27;0.65;;;16.10;99.90;;;;;;4372540;32;20156;-66
2023/05/16 12:11:37;;;;;;;0.43;0.43;;;15.80;99.90;;;;;;4390021;32;20122;-66
2023/05/16 12:14:04;;;;;;;4.47;1.37;;;16.00;99.90;;;;;;4394036;32;20073;-68
2023/05/16 12:16:30;;;;;;;0.60;0.60;;;16.00;99.90;;;;;;4391349;32;20442;-66
2023/05/16 12:18:56;;;;;;;0.20;0.20;;;15.90;99.90;;;;;;4392053;32;20587;-67
2023/05/16 12:21:21;;;;;;;0.20;0.20;;;15.90;99.90;;;;;;4388600;32;20086;-66
2023/05/16 12:23:47;;;;;;;0.47;0.47;;;15.70;99.90;;;;;;4384712;32;20093;-66
2023/05/16 12:26:13;;;;;;;0.45;0.45;;;15.40;99.90;;;;;;4384470;32;20074;-67
2023/05/16 12:28:38;;;;;;;7.47;0.73;;;15.20;99.90;;;;;;4381203;32;20888;-67
2023/05/16 12:31:17;;;;;;;0.73;0.68;;;15.20;99.90;;;;;;4384915;32;20105;-67
2023/05/16 12:33:44;;;;;;;0.30;0.30;;;15.00;99.90;;;;;;4383861;32;20082;-66
2023/05/16 12:36:14;;;;;;;0.75;0.75;;;14.90;99.90;;;;;;4387024;32;20592;-68
2023/05/16 12:38:40;;;;;;;3.53;0.80;;;14.90;99.90;;;;;;4378942;32;20590;-67
2023/05/16 12:41:05;;;;;;;4.18;1.80;;;15.10;99.90;;;;;;4383838;32;21344;-67
2023/05/16 12:43:31;;;;;;;20.95;1.77;;;15.40;99.90;;;;;;4381981;32;20102;-67
2023/05/16 12:45:57;;;;;;;4.15;0.90;;;15.40;99.90;;;;;;4386879;32;20140;-67